Vero Beach Municipal Airport
KVRB : now visible

Airfield :











YOU CAN JOIN US ON...

 
LOGIN :

Register | Disclaimer

   EN    FR    IT 

 









Legend :    VFR   Marginal VFR   IFR   Intensive IFR   Very Intensive IFR
Visi :
Ceiling :
>= 8 km
>= 3000ft
5 to 8 km
1000 to 3000 ft
1500m to 5 km
500 to 1000 ft
800 to 1500m
200 to 500 ft
< 800m
< 200 ft
Symbols :   Thunderstorms  Fog  Heavy snow  Heavy precipitations  Wind > 20 kt






- Airport Elevation : 24 ft
- IATA code : VRB


KVRB - Vero Beach Municipal

CURRENT METAR :
  • 250853Z 00000KT 10SM CLR 23/22 A2994 RMK AO2 SLP137 T02330222 55001

EXPIRED METARs :
  • 250753Z 00000KT 10SM CLR 23/22 A2993 RMK AO2 SLP133 T02330222
  • 250653Z 00000KT 10SM CLR 23/22 A2992 RMK AO2 SLP131 T02330222
  • 250553Z 00000KT 10SM CLR 24/22 A2994 RMK AO2 SLP138 T02390222 10278 20233 58008
  • 250453Z 00000KT 10SM CLR 26/23 A2996 RMK AO2 SLP145 T02560228 403170222
  • 250353Z 16004KT 10SM CLR 26/23 A2996 RMK AO2 SLP144 T02560233

TAF KVRB
Valid from the 25 at 06:00 until the 26 at 06:00 UTC


250539Z 2506/2606 VRB03KT P6SM FEW030 BKN250
FM251300 21004KT P6SM SCT030 BKN250
FM251600 13006KT P6SM SCT035 BKN250
FM251800 10008KT P6SM VCTS SCT040CB SCT060 BKN250
FM260000 15006KT P6SM VCSH FEW050 SCT070 BKN250
FM260300 VRB03KT P6SM BKN200
KZMA FIR / North America



MET'MAP, your aeronautical weather chart ! - Copyright ORBIFLY December 2007 - Disclaimer

ORBIFLY MET'MAP TEAM :

Programming & Development : Alexandra Zaïnal
Original concept : Baudouin d'Aumeries
Technical & hardware support : Manuel Goepfert
Assistance : Marc-Olivier Méhu




SOURCES & CREDITS :

   NOAA       Earth
Advisory